Time;durP1;ratioP1;P1;durP2;ratioP2;P2;SDS_P1;SDS_P2;PMS_P1;PMS_P2;Temp;Humidity;BMP_temperature;BMP_pressure;BME280_temperature;BME280_humidity;BME280_pressure;Samples;Min_cycle;Max_cycle;Signal;HPM_P1;HPM_P2
2023/01/11 00:01:31;;;;;;;19.80;8.25;;;;;;;;;;6241760;22;20028;-86
2023/01/11 00:03:58;;;;;;;18.70;8.30;;;;;;;;;;6215105;22;20466;-85
2023/01/11 00:06:25;;;;;;;18.67;8.25;;;;;;;;;;6214996;22;20098;-85
2023/01/11 00:08:51;;;;;;;18.92;8.27;;;;;;;;;;6214040;22;20614;-85
2023/01/11 00:11:18;;;;;;;15.57;7.80;;;;;;;;;;6241585;22;20036;-85
2023/01/11 00:13:46;;;;;;;17.13;7.80;;;;;;;;;;6240869;22;20075;-86
2023/01/11 00:16:13;;;;;;;14.48;7.20;;;;;;;;;;6241266;22;20028;-85
2023/01/11 00:18:39;;;;;;;17.48;7.57;;;;;;;;;;6240804;22;20024;-86
2023/01/11 00:21:07;;;;;;;19.75;6.95;;;;;;;;;;6240744;22;20032;-86
2023/01/11 00:23:34;;;;;;;17.35;6.47;;;;;;;;;;6213243;22;20096;-85
2023/01/11 00:26:02;;;;;;;17.00;7.88;;;;;;;;;;6241345;22;20059;-86
2023/01/11 00:28:29;;;;;;;13.63;7.40;;;;;;;;;;6214143;22;20456;-86
2023/01/11 00:30:55;;;;;;;16.00;7.38;;;;;;;;;;6240453;22;20020;-86
2023/01/11 00:33:23;;;;;;;14.52;6.70;;;;;;;;;;6240538;22;20025;-86
2023/01/11 00:35:50;;;;;;;15.43;7.53;;;;;;;;;;6241301;22;20020;-86
2023/01/11 00:38:42;;;;;;;18.40;7.30;;;;;;;;;;6240789;22;20031;-86
2023/01/11 00:47:55;;;;;;;17.95;7.82;;;;;;;;;;6240627;22;20029;-85
2023/01/11 00:49:21;;;;;;;15.60;6.88;;;;;;;;;;6242193;22;20528;-86
2023/01/11 00:51:50;;;;;;;14.23;6.47;;;;;;;;;;6241932;22;20024;-85
2023/01/11 00:54:17;;;;;;;16.80;6.60;;;;;;;;;;6216060;22;20013;-86
2023/01/11 00:56:43;;;;;;;17.35;7.10;;;;;;;;;;6216298;22;20033;-86
2023/01/11 00:59:09;;;;;;;17.13;6.68;;;;;;;;;;6216663;22;20557;-86
2023/01/11 01:01:36;;;;;;;17.02;6.88;;;;;;;;;;6215278;22;20024;-86
2023/01/11 01:04:03;;;;;;;16.35;6.95;;;;;;;;;;6242780;22;20397;-86
2023/01/11 01:06:32;;;;;;;14.75;6.68;;;;;;;;;;6243442;22;20422;-86
2023/01/11 01:08:59;;;;;;;15.13;6.13;;;;;;;;;;6243959;22;20040;-83
2023/01/11 01:11:26;;;;;;;17.42;7.18;;;;;;;;;;6242620;22;20028;-83
2023/01/11 01:16:37;;;;;;;16.73;6.50;;;;;;;;;;6245204;22;20027;-83
2023/01/11 01:19:04;;;;;;;16.27;6.65;;;;;;;;;;6219163;22;20489;-83
2023/01/11 01:21:30;;;;;;;12.23;6.25;;;;;;;;;;6245007;22;20060;-83
2023/01/11 01:23:56;;;;;;;17.13;7.13;;;;;;;;;;6244125;22;20115;-84
2023/01/11 01:26:23;;;;;;;12.50;6.07;;;;;;;;;;6217954;22;20469;-83
2023/01/11 01:28:49;;;;;;;15.55;6.03;;;;;;;;;;6244233;22;20488;-83
2023/01/11 01:31:16;;;;;;;11.18;5.32;;;;;;;;;;6244358;22;20056;-83
2023/01/11 01:33:42;;;;;;;13.25;6.00;;;;;;;;;;6243390;22;20318;-83
2023/01/11 01:36:09;;;;;;;12.07;5.22;;;;;;;;;;6244040;22;20029;-83
2023/01/11 01:38:35;;;;;;;11.82;5.13;;;;;;;;;;6244647;22;20031;-83
2023/01/11 01:41:01;;;;;;;15.10;4.80;;;;;;;;;;6243979;22;20378;-83
2023/01/11 01:44:03;;;;;;;13.38;5.10;;;;;;;;;;6243062;22;20484;-83
2023/01/11 01:46:31;;;;;;;11.70;4.88;;;;;;;;;;6120067;23;20027;-82
2023/01/11 01:49:02;;;;;;;9.38;5.03;;;;;;;;;;6219093;22;20032;-82
2023/01/11 01:51:33;;;;;;;8.73;3.88;;;;;;;;;;6244241;22;20031;-82
2023/01/11 01:54:04;;;;;;;9.77;4.95;;;;;;;;;;6242758;22;20373;-82
2023/01/11 01:56:32;;;;;;;11.55;5.03;;;;;;;;;;6243398;22;20581;-82
2023/01/11 01:59:07;;;;;;;12.30;4.72;;;;;;;;;;6243770;22;20032;-82
2023/01/11 02:01:46;;;;;;;10.32;4.68;;;;;;;;;;6217150;22;20036;-82
2023/01/11 02:04:33;;;;;;;11.82;4.53;;;;;;;;;;6243516;22;20042;-82
2023/01/11 02:07:05;;;;;;;11.30;4.25;;;;;;;;;;6243561;22;20024;-84
2023/01/11 02:09:38;;;;;;;9.98;4.78;;;;;;;;;;6244344;22;20025;-84
2023/01/11 02:12:05;;;;;;;9.75;4.63;;;;;;;;;;6242782;22;20627;-84
2023/01/11 02:14:32;;;;;;;8.93;4.63;;;;;;;;;;6243505;22;20029;-84
2023/01/11 02:16:58;;;;;;;10.65;4.30;;;;;;;;;;6243956;22;20428;-84
2023/01/11 02:19:35;;;;;;;8.55;3.72;;;;;;;;;;6243112;22;20028;-83
2023/01/11 02:22:12;;;;;;;8.38;4.18;;;;;;;;;;6244477;22;20408;-83
2023/01/11 02:24:55;;;;;;;7.88;4.05;;;;;;;;;;6244173;22;20027;-83
2023/01/11 02:27:40;;;;;;;8.48;4.00;;;;;;;;;;6218312;22;20574;-83
2023/01/11 02:30:19;;;;;;;9.82;4.25;;;;;;;;;;6244939;22;20024;-83
2023/01/11 02:32:48;;;;;;;9.05;4.53;;;;;;;;;;6244541;22;20436;-83
2023/01/11 02:35:19;;;;;;;10.65;4.10;;;;;;;;;;6216446;22;20024;-83
2023/01/11 02:37:45;;;;;;;;;;;;;;;;;;6244163;22;20028;-83
2023/01/11 02:40:11;;;;;;;7.90;3.70;;;;;;;;;;6242844;22;40932;-83
2023/01/11 02:45:26;;;;;;;11.65;4.43;;;;;;;;;;6243612;22;20039;-83
2023/01/11 02:48:04;;;;;;;10.73;5.05;;;;;;;;;;6216970;22;20024;-83
2023/01/11 02:50:49;;;;;;;11.38;5.13;;;;;;;;;;6243447;22;20029;-84
2023/01/11 02:53:35;;;;;;;10.55;4.90;;;;;;;;;;6243305;22;20036;-81
2023/01/11 02:56:04;;;;;;;10.02;5.15;;;;;;;;;;6244408;22;20032;-81
2023/01/11 02:58:33;;;;;;;10.27;4.95;;;;;;;;;;6244014;22;20009;-81
2023/01/11 03:00:59;;;;;;;11.55;4.95;;;;;;;;;;6244330;22;20464;-81
2023/01/11 03:03:29;;;;;;;11.98;5.53;;;;;;;;;;6243632;22;20036;-81
2023/01/11 03:05:57;;;;;;;11.57;5.50;;;;;;;;;;6217590;22;20126;-81
2023/01/11 03:08:29;;;;;;;12.65;6.05;;;;;;;;;;6243229;22;20027;-80
2023/01/11 03:11:08;;;;;;;11.95;5.53;;;;;;;;;;6242988;22;20127;-81
2023/01/11 03:14:13;;;;;;;12.75;5.85;;;;;;;;;;6242777;22;20020;-80
2023/01/11 03:16:46;;;;;;;12.23;5.40;;;;;;;;;;6096498;23;20439;-81
2023/01/11 03:19:12;;;;;;;9.75;5.63;;;;;;;;;;6099711;23;20031;-81
2023/01/11 03:21:56;;;;;;;10.43;5.07;;;;;;;;;;6197026;22;20024;-81
2023/01/11 03:24:41;;;;;;;10.90;5.88;;;;;;;;;;6243118;22;20111;-81
2023/01/11 03:27:16;;;;;;;14.07;6.05;;;;;;;;;;6243465;22;20473;-80
2023/01/11 03:29:48;;;;;;;13.38;6.38;;;;;;;;;;6243711;22;20024;-81
2023/01/11 03:32:17;;;;;;;13.88;6.35;;;;;;;;;;6243858;22;20032;-81
2023/01/11 03:34:47;;;;;;;13.27;6.30;;;;;;;;;;6215941;22;20025;-81
2023/01/11 03:37:21;;;;;;;13.20;6.53;;;;;;;;;;6215503;22;20027;-81
2023/01/11 03:39:52;;;;;;;12.35;5.78;;;;;;;;;;6243014;22;20031;-80
2023/01/11 03:42:21;;;;;;;9.77;5.13;;;;;;;;;;6243942;22;20229;-80
2023/01/11 03:44:51;;;;;;;9.27;3.75;;;;;;;;;;6243586;22;20024;-81
2023/01/11 03:47:21;;;;;;;7.63;3.45;;;;;;;;;;6243032;22;20028;-81
2023/01/11 03:49:52;;;;;;;10.20;3.97;;;;;;;;;;6216186;22;20024;-80
2023/01/11 03:52:18;;;;;;;;;;;;;;;;;;6218093;22;20028;-80
2023/01/11 03:54:44;;;;;;;9.40;4.57;;;;;;;;;;6243558;22;46250;-80
2023/01/11 03:57:24;;;;;;;11.43;5.10;;;;;;;;;;6218436;22;20098;-80
2023/01/11 03:59:50;;;;;;;11.87;5.27;;;;;;;;;;6243095;22;20036;-80
2023/01/11 04:02:25;;;;;;;10.98;4.63;;;;;;;;;;6243958;22;20028;-80
2023/01/11 04:04:51;;;;;;;9.60;4.90;;;;;;;;;;6244218;22;20021;-80
2023/01/11 04:07:18;;;;;;;8.63;4.20;;;;;;;;;;6243697;22;20528;-80
2023/01/11 04:09:44;;;;;;;7.45;3.80;;;;;;;;;;6242691;22;20012;-80
2023/01/11 04:12:11;;;;;;;8.43;3.80;;;;;;;;;;6244246;22;20032;-80
2023/01/11 04:14:37;;;;;;;10.38;4.60;;;;;;;;;;6243808;22;20031;-81
2023/01/11 04:17:03;;;;;;;11.00;4.90;;;;;;;;;;6243835;22;20024;-80
2023/01/11 04:19:30;;;;;;;16.13;5.72;;;;;;;;;;6242313;22;20559;-81
2023/01/11 04:21:56;;;;;;;15.95;5.68;;;;;;;;;;6243930;22;20056;-80
2023/01/11 04:24:23;;;;;;;14.35;6.43;;;;;;;;;;6243621;22;20729;-81
2023/01/11 04:26:49;;;;;;;15.80;6.57;;;;;;;;;;6213753;22;20366;-80
2023/01/11 04:29:15;;;;;;;14.98;6.20;;;;;;;;;;6242775;22;20238;-81
2023/01/11 04:31:42;;;;;;;13.85;5.65;;;;;;;;;;6243183;22;20017;-80
2023/01/11 04:34:10;;;;;;;12.32;5.82;;;;;;;;;;6244153;22;20032;-81
2023/01/11 04:36:36;;;;;;;18.15;6.07;;;;;;;;;;6242989;22;20031;-80
2023/01/11 04:39:02;;;;;;;16.90;5.80;;;;;;;;;;6243450;22;20032;-81
2023/01/11 04:44:14;;;;;;;13.50;5.68;;;;;;;;;;6243756;22;20492;-80
2023/01/11 04:46:40;;;;;;;13.20;5.50;;;;;;;;;;6243533;22;20025;-81
2023/01/11 04:49:06;;;;;;;17.10;5.90;;;;;;;;;;6243610;22;20029;-80
2023/01/11 04:51:33;;;;;;;17.45;6.00;;;;;;;;;;6241945;22;20764;-81
2023/01/11 04:53:59;;;;;;;17.35;5.93;;;;;;;;;;6243109;22;20155;-80
2023/01/11 04:56:25;;;;;;;18.27;5.70;;;;;;;;;;6243301;22;20020;-83
2023/01/11 04:58:54;;;;;;;16.33;4.93;;;;;;;;;;6241639;22;20024;-83
2023/01/11 05:01:20;;;;;;;14.25;5.10;;;;;;;;;;6240651;22;20031;-83
2023/01/11 05:03:47;;;;;;;20.42;5.35;;;;;;;;;;6242175;22;20059;-80
2023/01/11 05:06:14;;;;;;;20.05;5.50;;;;;;;;;;6241885;22;20028;-81
2023/01/11 05:08:44;;;;;;;21.45;4.53;;;;;;;;;;6242534;22;20024;-81
2023/01/11 05:11:10;;;;;;;12.67;3.87;;;;;;;;;;6242419;22;20028;-80
2023/01/11 05:13:42;;;;;;;16.25;5.00;;;;;;;;;;6214352;22;20251;-80
2023/01/11 05:16:09;;;;;;;15.25;4.75;;;;;;;;;;6216331;22;20087;-80
2023/01/11 05:18:37;;;;;;;15.73;5.03;;;;;;;;;;6243502;22;20067;-81
2023/01/11 05:21:05;;;;;;;19.23;5.43;;;;;;;;;;6242999;22;20103;-81
2023/01/11 05:23:32;;;;;;;14.13;4.47;;;;;;;;;;6242240;22;20231;-81
2023/01/11 05:25:58;;;;;;;20.23;4.53;;;;;;;;;;6243085;22;20083;-81
2023/01/11 05:28:24;;;;;;;14.48;4.50;;;;;;;;;;6242909;22;20055;-80
2023/01/11 05:30:52;;;;;;;18.95;4.13;;;;;;;;;;6215946;22;20029;-80
2023/01/11 05:33:18;;;;;;;15.50;3.92;;;;;;;;;;6216906;22;20430;-80
2023/01/11 05:35:45;;;;;;;17.23;3.90;;;;;;;;;;6244743;22;20568;-80
2023/01/11 05:38:11;;;;;;;19.50;3.92;;;;;;;;;;6244243;22;20024;-81
2023/01/11 05:40:40;;;;;;;20.40;3.45;;;;;;;;;;6244128;22;20031;-80
2023/01/11 05:43:06;;;;;;;25.55;3.22;;;;;;;;;;6243780;22;20744;-80
2023/01/11 05:45:35;;;;;;;19.08;3.40;;;;;;;;;;6243821;22;20079;-80
2023/01/11 05:48:02;;;;;;;14.90;3.15;;;;;;;;;;6243514;22;20118;-81
2023/01/11 05:50:28;;;;;;;19.88;3.50;;;;;;;;;;6243962;22;20035;-81
2023/01/11 05:52:55;;;;;;;18.95;2.97;;;;;;;;;;6243820;22;20033;-81
2023/01/11 05:55:21;;;;;;;16.65;3.10;;;;;;;;;;6243757;22;20064;-81
2023/01/11 05:57:49;;;;;;;19.35;2.80;;;;;;;;;;6244270;22;20024;-83
2023/01/11 06:00:16;;;;;;;19.73;2.63;;;;;;;;;;6246175;22;20033;-83
2023/01/11 06:02:45;;;;;;;18.55;2.92;;;;;;;;;;6243611;22;20474;-83
2023/01/11 06:05:12;;;;;;;15.60;2.72;;;;;;;;;;6243745;22;20020;-83
2023/01/11 06:07:38;;;;;;;16.75;2.60;;;;;;;;;;6243852;22;20024;-83
2023/01/11 06:10:05;;;;;;;20.25;3.20;;;;;;;;;;6217220;22;20544;-83
2023/01/11 06:12:31;;;;;;;20.23;3.25;;;;;;;;;;6242814;22;20039;-83
2023/01/11 06:14:58;;;;;;;17.55;2.50;;;;;;;;;;6242982;22;20027;-83
2023/01/11 06:17:24;;;;;;;23.67;2.35;;;;;;;;;;6243844;22;20033;-83
2023/01/11 06:19:50;;;;;;;10.13;2.30;;;;;;;;;;6243145;22;20023;-83
2023/01/11 06:22:17;;;;;;;15.15;2.50;;;;;;;;;;6241622;22;20456;-83
2023/01/11 06:24:43;;;;;;;11.10;2.30;;;;;;;;;;6241770;22;20024;-83
2023/01/11 06:27:09;;;;;;;17.90;2.92;;;;;;;;;;6243404;22;20084;-83
2023/01/11 06:29:36;;;;;;;22.25;3.13;;;;;;;;;;6242226;22;20486;-84
2023/01/11 06:32:02;;;;;;;21.52;2.70;;;;;;;;;;6242369;22;20063;-83
2023/01/11 06:34:29;;;;;;;14.90;1.83;;;;;;;;;;6214331;22;20028;-85
2023/01/11 06:36:57;;;;;;;15.80;2.53;;;;;;;;;;6243047;22;20466;-84
2023/01/11 06:39:24;;;;;;;23.63;2.80;;;;;;;;;;6243429;22;20482;-81
2023/01/11 06:41:50;;;;;;;19.00;2.55;;;;;;;;;;6215866;22;20087;-81
2023/01/11 06:44:16;;;;;;;16.10;2.33;;;;;;;;;;6243655;22;20549;-81
2023/01/11 06:46:43;;;;;;;13.45;2.80;;;;;;;;;;6242942;22;20024;-84
2023/01/11 06:49:12;;;;;;;13.40;2.35;;;;;;;;;;6216899;22;20098;-81
2023/01/11 06:51:39;;;;;;;18.85;2.20;;;;;;;;;;6216525;22;20477;-84
2023/01/11 06:54:05;;;;;;;15.77;2.20;;;;;;;;;;6242537;22;20031;-84
2023/01/11 06:56:31;;;;;;;12.40;2.03;;;;;;;;;;6242829;22;20517;-84
2023/01/11 06:58:58;;;;;;;13.77;1.98;;;;;;;;;;6242097;22;20025;-84
2023/01/11 07:01:25;;;;;;;17.15;2.58;;;;;;;;;;6243228;22;20029;-84
2023/01/11 07:03:51;;;;;;;18.42;2.60;;;;;;;;;;6216025;22;20074;-81
2023/01/11 07:06:18;;;;;;;17.08;2.58;;;;;;;;;;6216018;22;20060;-81
2023/01/11 07:08:44;;;;;;;12.65;1.80;;;;;;;;;;6241874;22;20033;-82
2023/01/11 07:11:11;;;;;;;13.20;1.77;;;;;;;;;;6243291;22;20038;-82
2023/01/11 07:13:37;;;;;;;12.65;2.28;;;;;;;;;;6215950;22;20028;-81
2023/01/11 07:16:03;;;;;;;14.50;1.95;;;;;;;;;;6241202;22;20024;-81
2023/01/11 07:18:33;;;;;;;23.75;2.40;;;;;;;;;;6241025;22;20127;-81
2023/01/11 07:21:01;;;;;;;12.43;2.25;;;;;;;;;;6241713;22;20024;-82
2023/01/11 07:23:27;;;;;;;14.18;2.17;;;;;;;;;;6242735;22;20109;-84
2023/01/11 07:25:54;;;;;;;18.70;2.30;;;;;;;;;;6242176;22;20033;-84
2023/01/11 07:28:20;;;;;;;17.80;2.10;;;;;;;;;;6241816;22;20020;-84
2023/01/11 07:30:48;;;;;;;20.13;2.03;;;;;;;;;;6215802;22;20116;-84
2023/01/11 07:33:25;;;;;;;14.60;2.47;;;;;;;;;;6217913;22;20021;-85
2023/01/11 07:35:51;;;;;;;21.33;2.95;;;;;;;;;;6242549;22;20573;-84
2023/01/11 07:38:18;;;;;;;18.95;2.28;;;;;;;;;;6243244;22;20103;-84
2023/01/11 07:40:44;;;;;;;23.70;2.20;;;;;;;;;;6243067;22;20071;-84
2023/01/11 07:43:13;;;;;;;13.07;3.00;;;;;;;;;;6242558;22;20029;-85
2023/01/11 07:45:42;;;;;;;16.95;2.33;;;;;;;;;;6214450;22;20039;-84
2023/01/11 07:48:13;;;;;;;15.95;2.25;;;;;;;;;;6217856;22;20544;-84
2023/01/11 07:50:39;;;;;;;16.73;2.50;;;;;;;;;;6242176;22;20024;-84
2023/01/11 07:53:09;;;;;;;15.35;2.10;;;;;;;;;;6242516;22;20032;-84
2023/01/11 07:55:38;;;;;;;15.00;2.72;;;;;;;;;;6241581;22;20029;-84
2023/01/11 07:58:05;;;;;;;16.65;3.05;;;;;;;;;;6214959;22;20030;-84
2023/01/11 08:00:32;;;;;;;15.68;3.42;;;;;;;;;;6241578;22;20024;-85
2023/01/11 08:02:59;;;;;;;19.60;3.22;;;;;;;;;;6242219;22;20028;-85
2023/01/11 08:05:25;;;;;;;18.05;2.00;;;;;;;;;;6242077;22;20025;-85
2023/01/11 08:07:51;;;;;;;15.10;2.30;;;;;;;;;;6241766;22;20032;-85
2023/01/11 08:10:18;;;;;;;20.45;1.90;;;;;;;;;;6241721;22;20024;-85
2023/01/11 08:15:35;;;;;;;15.77;2.40;;;;;;;;;;6242439;22;20471;-84
2023/01/11 08:18:02;;;;;;;19.45;2.42;;;;;;;;;;6214591;22;20032;-84
2023/01/11 08:20:28;;;;;;;21.80;3.03;;;;;;;;;;6240656;22;20950;-85
2023/01/11 08:22:55;;;;;;;18.08;2.53;;;;;;;;;;6240492;22;20434;-85
2023/01/11 08:25:21;;;;;;;17.67;2.67;;;;;;;;;;6214681;22;20479;-85
2023/01/11 08:27:48;;;;;;;18.02;2.60;;;;;;;;;;6213413;22;20024;-84
2023/01/11 08:30:14;;;;;;;17.58;2.45;;;;;;;;;;6240320;22;20030;-85
2023/01/11 08:32:40;;;;;;;13.93;2.45;;;;;;;;;;6241005;22;20040;-84
2023/01/11 08:35:07;;;;;;;12.10;2.30;;;;;;;;;;6240594;22;20020;-85
2023/01/11 08:37:33;;;;;;;20.75;2.00;;;;;;;;;;6240579;22;20063;-85
2023/01/11 08:40:00;;;;;;;15.75;1.90;;;;;;;;;;6240936;22;20496;-85
2023/01/11 08:42:26;;;;;;;14.48;2.60;;;;;;;;;;6214594;22;20035;-85
2023/01/11 08:44:54;;;;;;;22.77;2.38;;;;;;;;;;6214257;22;20462;-85
2023/01/11 08:47:21;;;;;;;10.68;2.10;;;;;;;;;;6241614;22;20020;-85
2023/01/11 08:49:47;;;;;;;15.35;2.58;;;;;;;;;;6241501;22;20500;-85
2023/01/11 08:52:14;;;;;;;14.52;2.15;;;;;;;;;;6213290;22;20015;-85
2023/01/11 08:54:40;;;;;;;14.57;2.40;;;;;;;;;;6240654;22;20021;-85
2023/01/11 08:57:07;;;;;;;18.70;2.38;;;;;;;;;;6211721;22;20501;-85
2023/01/11 08:59:33;;;;;;;20.45;2.42;;;;;;;;;;6212528;22;20484;-85
2023/01/11 09:02:01;;;;;;;14.25;2.78;;;;;;;;;;6241043;22;20031;-85
2023/01/11 09:04:27;;;;;;;16.60;2.90;;;;;;;;;;6240592;22;20060;-82
2023/01/11 09:06:54;;;;;;;21.05;3.10;;;;;;;;;;6239542;22;20052;-82
2023/01/11 09:09:20;;;;;;;16.55;2.58;;;;;;;;;;6242107;22;20028;-82
2023/01/11 09:11:53;;;;;;;16.00;2.83;;;;;;;;;;6241599;22;20032;-81
2023/01/11 09:14:20;;;;;;;19.63;3.20;;;;;;;;;;6241312;22;20441;-82
2023/01/11 09:16:47;;;;;;;21.98;2.88;;;;;;;;;;6241208;22;20638;-83
2023/01/11 09:19:14;;;;;;;21.45;2.78;;;;;;;;;;6214841;22;20077;-82
2023/01/11 09:21:40;;;;;;;19.73;2.50;;;;;;;;;;6242967;22;20028;-82
2023/01/11 09:24:06;;;;;;;26.63;3.05;;;;;;;;;;6241921;22;20033;-83
2023/01/11 09:26:34;;;;;;;13.90;3.40;;;;;;;;;;6242693;22;20493;-83
2023/01/11 09:29:00;;;;;;;15.98;2.63;;;;;;;;;;6215533;22;20095;-82
2023/01/11 09:31:27;;;;;;;13.93;2.35;;;;;;;;;;6242883;22;20083;-82
2023/01/11 09:33:53;;;;;;;21.00;2.75;;;;;;;;;;6242509;22;20024;-83
2023/01/11 09:36:21;;;;;;;18.35;2.63;;;;;;;;;;6215583;22;20029;-82
2023/01/11 09:38:49;;;;;;;17.23;3.42;;;;;;;;;;6241972;22;20028;-82
2023/01/11 09:41:35;;;;;;;19.95;3.00;;;;;;;;;;6242857;22;20518;-83
2023/01/11 09:44:14;;;;;;;23.75;3.28;;;;;;;;;;6214808;22;20029;-83
2023/01/11 09:46:44;;;;;;;19.45;3.17;;;;;;;;;;6241212;22;20024;-84
2023/01/11 09:49:21;;;;;;;17.30;3.22;;;;;;;;;;6215867;22;20024;-83
2023/01/11 09:51:50;;;;;;;27.05;3.72;;;;;;;;;;6241197;22;20032;-84
2023/01/11 09:54:19;;;;;;;17.10;2.80;;;;;;;;;;6215998;22;20094;-86
2023/01/11 09:56:51;;;;;;;12.93;2.20;;;;;;;;;;6242181;22;20028;-87
2023/01/11 09:59:25;;;;;;;22.10;3.33;;;;;;;;;;6215294;22;20036;-86
2023/01/11 10:02:04;;;;;;;18.42;2.60;;;;;;;;;;6241276;22;20027;-85
2023/01/11 10:04:54;;;;;;;21.30;2.67;;;;;;;;;;6242003;22;20028;-86
2023/01/11 10:07:42;;;;;;;12.70;2.08;;;;;;;;;;6242173;22;20553;-85
2023/01/11 10:10:12;;;;;;;24.30;2.78;;;;;;;;;;6214787;22;20056;-86
2023/01/11 10:12:59;;;;;;;13.27;2.78;;;;;;;;;;6238848;22;20032;-86
2023/01/11 10:15:52;;;;;;;19.92;3.22;;;;;;;;;;6218076;22;20468;-86
2023/01/11 10:19:07;;;;;;;15.38;2.33;;;;;;;;;;6215966;22;20050;-86
2023/01/11 10:21:57;;;;;;;20.25;2.10;;;;;;;;;;6238599;22;20033;-86
2023/01/11 10:24:29;;;;;;;20.25;2.08;;;;;;;;;;6241557;22;20025;-86
2023/01/11 10:27:00;;;;;;;18.67;2.67;;;;;;;;;;6215317;22;20052;-85
2023/01/11 10:38:00;;;;;;;9.07;2.35;;;;;;;;;;6240643;22;20027;-84
2023/01/11 10:43:24;;;;;;;17.33;2.05;;;;;;;;;;6241560;22;20107;-83
2023/01/11 10:46:04;;;;;;;17.25;2.10;;;;;;;;;;6213194;22;20024;-83
2023/01/11 10:48:37;;;;;;;10.70;2.13;;;;;;;;;;6215453;22;20484;-83
2023/01/11 10:51:04;;;;;;;15.57;2.13;;;;;;;;;;6213079;22;20035;-83
2023/01/11 10:53:35;;;;;;;13.10;2.45;;;;;;;;;;6242951;22;20029;-87
2023/01/11 10:56:20;;;;;;;17.25;2.05;;;;;;;;;;6213980;22;20024;-83
2023/01/11 10:59:16;;;;;;;17.83;2.40;;;;;;;;;;6214389;22;20087;-84
2023/01/11 11:02:02;;;;;;;15.85;2.08;;;;;;;;;;6202811;22;20292;-85
2023/01/11 11:04:49;;;;;;;16.17;2.03;;;;;;;;;;6241685;22;20035;-84
2023/01/11 11:07:16;;;;;;;16.55;2.15;;;;;;;;;;6241543;22;20540;-85
2023/01/11 11:10:03;;;;;;;15.98;2.47;;;;;;;;;;6213522;22;20087;-84
2023/01/11 11:15:55;;;;;;;15.35;1.90;;;;;;;;;;6239911;22;20448;-84
2023/01/11 11:18:25;;;;;;;18.00;2.08;;;;;;;;;;6241466;22;20531;-85
2023/01/11 11:21:23;;;;;;;16.67;1.90;;;;;;;;;;6240958;22;20464;-85
2023/01/11 11:24:33;;;;;;;18.02;2.20;;;;;;;;;;6217211;22;20488;-85
2023/01/11 11:27:15;;;;;;;15.52;2.50;;;;;;;;;;6239736;22;20492;-87
2023/01/11 11:29:50;;;;;;;20.67;2.55;;;;;;;;;;6240880;22;20036;-87
2023/01/11 11:32:51;;;;;;;13.43;1.95;;;;;;;;;;6240668;22;20031;-87
2023/01/11 11:35:31;;;;;;;13.18;2.15;;;;;;;;;;6197710;22;20041;-87
2023/01/11 11:37:58;;;;;;;14.45;2.72;;;;;;;;;;6216125;22;20098;-87
2023/01/11 11:40:30;;;;;;;16.67;2.92;;;;;;;;;;6241489;22;20068;-88
2023/01/11 11:43:18;;;;;;;18.20;3.05;;;;;;;;;;6240888;22;20029;-87
2023/01/11 11:46:05;;;;;;;15.70;2.47;;;;;;;;;;6241185;22;20461;-87
2023/01/11 11:48:33;;;;;;;18.35;2.22;;;;;;;;;;6242006;22;20406;-88
2023/01/11 11:51:01;;;;;;;16.17;3.30;;;;;;;;;;6240937;22;20025;-88
2023/01/11 11:53:34;;;;;;;19.00;3.80;;;;;;;;;;6214167;22;20024;-89
2023/01/11 11:56:21;;;;;;;16.05;4.30;;;;;;;;;;6240073;22;20512;-90
2023/01/11 11:58:48;;;;;;;19.88;4.85;;;;;;;;;;6241803;22;20027;-89
2023/01/11 12:01:29;;;;;;;17.45;4.93;;;;;;;;;;6240447;22;20025;-89
2023/01/11 12:04:05;;;;;;;;;;;;;;;;;;6216935;22;20024;-86
2023/01/11 12:06:31;;;;;;;23.35;5.72;;;;;;;;;;6240757;22;45055;-86
2023/01/11 12:09:01;;;;;;;25.08;7.65;;;;;;;;;;6240521;22;20749;-86
2023/01/11 12:11:39;;;;;;;18.85;5.60;;;;;;;;;;6239067;22;20079;-86
2023/01/11 12:14:12;;;;;;;22.90;7.47;;;;;;;;;;6241244;22;20071;-87
2023/01/11 12:16:41;;;;;;;16.15;3.30;;;;;;;;;;6239626;22;20107;-87
2023/01/11 12:19:23;;;;;;;11.35;2.05;;;;;;;;;;6240783;22;20024;-87
2023/01/11 12:21:50;;;;;;;14.40;2.33;;;;;;;;;;6212907;22;20025;-86
2023/01/11 12:24:22;;;;;;;13.00;2.10;;;;;;;;;;6238685;22;20036;-86
2023/01/11 12:26:57;;;;;;;18.42;2.17;;;;;;;;;;6239776;22;20025;-86
2023/01/11 12:29:33;;;;;;;14.60;2.78;;;;;;;;;;6240642;22;20127;-87
2023/01/11 12:32:11;;;;;;;15.02;2.15;;;;;;;;;;6239906;22;20037;-86
2023/01/11 12:35:01;;;;;;;19.35;2.63;;;;;;;;;;6240719;22;20474;-86
2023/01/11 12:37:46;;;;;;;15.00;2.13;;;;;;;;;;6238394;22;20496;-87
2023/01/11 12:40:24;;;;;;;19.33;2.58;;;;;;;;;;6243525;22;20021;-85
2023/01/11 12:43:01;;;;;;;16.52;1.90;;;;;;;;;;6247346;22;20020;-85
2023/01/11 12:45:51;;;;;;;17.85;2.55;;;;;;;;;;6248549;22;20008;-84
2023/01/11 12:48:31;;;;;;;16.02;2.42;;;;;;;;;;6190139;22;20024;-84
2023/01/11 12:51:09;;;;;;;11.93;2.17;;;;;;;;;;6248651;22;20047;-84
2023/01/11 12:53:38;;;;;;;12.73;2.10;;;;;;;;;;6248596;22;20032;-85
2023/01/11 12:56:23;;;;;;;15.52;2.45;;;;;;;;;;6220269;22;20100;-84
2023/01/11 12:58:53;;;;;;;17.55;2.58;;;;;;;;;;6244307;22;20079;-84
2023/01/11 13:01:23;;;;;;;24.73;2.90;;;;;;;;;;6246114;22;20120;-84
2023/01/11 13:03:49;;;;;;;19.70;2.63;;;;;;;;;;6245136;22;20048;-84
2023/01/11 13:06:19;;;;;;;14.55;2.20;;;;;;;;;;6243048;22;20425;-85
2023/01/11 13:08:58;;;;;;;15.70;2.10;;;;;;;;;;6243662;22;20484;-85
2023/01/11 13:11:36;;;;;;;18.08;2.35;;;;;;;;;;6243788;22;20025;-85
2023/01/11 13:14:11;;;;;;;12.27;2.33;;;;;;;;;;6244705;22;20368;-84
2023/01/11 13:16:56;;;;;;;18.58;2.00;;;;;;;;;;6245535;22;20083;-84
2023/01/11 13:19:31;;;;;;;16.08;1.80;;;;;;;;;;6244002;22;20478;-84
2023/01/11 13:22:03;;;;;;;14.45;1.80;;;;;;;;;;6245100;22;20056;-84
2023/01/11 13:24:30;;;;;;;16.27;2.22;;;;;;;;;;6219038;22;20751;-83
2023/01/11 13:26:59;;;;;;;13.13;2.03;;;;;;;;;;6245247;22;20079;-85
2023/01/11 13:29:39;;;;;;;13.95;1.73;;;;;;;;;;6218422;22;20462;-84
2023/01/11 13:32:10;;;;;;;15.95;2.33;;;;;;;;;;6248476;22;20063;-85
2023/01/11 13:34:42;;;;;;;13.90;2.03;;;;;;;;;;6245912;22;20059;-84
2023/01/11 13:37:21;;;;;;;19.90;2.08;;;;;;;;;;6216949;22;20119;-82
2023/01/11 13:39:55;;;;;;;19.00;2.42;;;;;;;;;;6245087;22;20063;-84
2023/01/11 13:42:25;;;;;;;15.23;2.13;;;;;;;;;;6245776;22;20492;-86
2023/01/11 13:45:05;;;;;;;14.55;2.17;;;;;;;;;;6243943;22;20540;-85
2023/01/11 13:47:35;;;;;;;18.65;3.20;;;;;;;;;;6243688;22;20036;-85
2023/01/11 13:50:11;;;;;;;15.82;2.30;;;;;;;;;;6245640;22;20028;-85
2023/01/11 13:52:56;;;;;;;11.13;2.20;;;;;;;;;;6243316;22;20497;-85
2023/01/11 13:55:35;;;;;;;19.25;2.60;;;;;;;;;;6244261;22;20040;-82
2023/01/11 13:58:17;;;;;;;13.43;1.80;;;;;;;;;;6243700;22;20503;-84
2023/01/11 14:01:02;;;;;;;14.98;2.03;;;;;;;;;;6242597;22;20115;-85
2023/01/11 14:03:46;;;;;;;15.77;2.40;;;;;;;;;;6216336;22;20025;-86
2023/01/11 14:06:24;;;;;;;14.18;2.05;;;;;;;;;;6242900;22;20109;-84
2023/01/11 14:08:52;;;;;;;16.05;2.38;;;;;;;;;;6243102;22;20024;-85
2023/01/11 14:11:25;;;;;;;23.63;3.17;;;;;;;;;;6214360;22;20024;-85
2023/01/11 14:14:14;;;;;;;14.38;2.33;;;;;;;;;;6241655;22;20328;-85
2023/01/11 14:16:43;;;;;;;17.42;1.88;;;;;;;;;;6242237;22;20590;-87
2023/01/11 14:19:16;;;;;;;17.17;3.00;;;;;;;;;;6215985;22;20031;-88
2023/01/11 14:22:01;;;;;;;20.13;2.58;;;;;;;;;;6243592;22;20031;-86
2023/01/11 14:24:29;;;;;;;14.10;2.65;;;;;;;;;;6242117;22;20035;-86
2023/01/11 14:26:58;;;;;;;25.13;2.70;;;;;;;;;;6242041;22;20055;-86
2023/01/11 14:29:49;;;;;;;14.07;2.22;;;;;;;;;;6242191;22;20412;-85
2023/01/11 14:32:15;;;;;;;17.23;2.47;;;;;;;;;;6239963;22;20024;-86
2023/01/11 14:35:00;;;;;;;19.33;2.88;;;;;;;;;;6242833;22;20618;-86
2023/01/11 14:37:49;;;;;;;15.90;2.08;;;;;;;;;;6241545;22;20111;-86
2023/01/11 14:40:26;;;;;;;21.48;3.05;;;;;;;;;;6242553;22;20060;-85
2023/01/11 14:42:55;;;;;;;15.95;2.53;;;;;;;;;;6215035;22;20028;-85
2023/01/11 14:45:24;;;;;;;15.20;2.45;;;;;;;;;;6242107;22;20740;-86
2023/01/11 14:47:57;;;;;;;17.45;2.05;;;;;;;;;;6243383;22;20561;-86
2023/01/11 14:50:27;;;;;;;18.80;2.63;;;;;;;;;;6242959;22;20172;-86
2023/01/11 14:52:56;;;;;;;15.48;2.00;;;;;;;;;;6241173;22;20024;-86
2023/01/11 14:55:26;;;;;;;19.42;2.33;;;;;;;;;;6241861;22;20025;-85
2023/01/11 14:57:55;;;;;;;15.02;2.50;;;;;;;;;;6242036;22;20382;-86
2023/01/11 15:00:23;;;;;;;21.63;2.80;;;;;;;;;;6242684;22;20025;-86
2023/01/11 15:02:53;;;;;;;20.80;2.45;;;;;;;;;;6242231;22;20036;-86
2023/01/11 15:05:34;;;;;;;12.57;2.67;;;;;;;;;;6242054;22;20194;-87
2023/01/11 15:08:09;;;;;;;22.25;2.63;;;;;;;;;;6241456;22;20239;-86
2023/01/11 15:10:35;;;;;;;13.50;2.15;;;;;;;;;;6242134;22;20543;-87
2023/01/11 15:13:06;;;;;;;23.13;2.63;;;;;;;;;;6242182;22;20028;-87
2023/01/11 15:18:20;;;;;;;15.38;2.45;;;;;;;;;;6241579;22;20091;-87
2023/01/11 15:20:49;;;;;;;13.02;1.60;;;;;;;;;;6241439;22;20028;-88
2023/01/11 15:23:16;;;;;;;19.45;3.10;;;;;;;;;;6242182;22;20501;-86
2023/01/11 15:25:45;;;;;;;19.27;2.42;;;;;;;;;;6241139;22;20032;-88
2023/01/11 15:28:31;;;;;;;16.47;1.70;;;;;;;;;;6240875;22;20029;-86
2023/01/11 15:30:57;;;;;;;19.52;2.80;;;;;;;;;;6241455;22;20028;-86